Time;durP1;ratioP1;P1;durP2;ratioP2;P2;SDS_P1;SDS_P2;PMS_P1;PMS_P2;Temp;Humidity;BMP_temperature;BMP_pressure;BME280_temperature;BME280_humidity;BME280_pressure;Samples;Min_cycle;Max_cycle;Signal;HPM_P1;HPM_P2
2022/01/03 15:33:30;;;;;;;;;;;;;;;21.89;54.25;100151.47;4972321;27;59515;-67
2022/01/03 15:35:58;;;;;;;;;;;;;;;21.68;54.88;100150.88;5010717;28;2841;-66
2022/01/03 15:38:23;;;;;;;;;;;;;;;21.85;54.50;100145.56;4964381;28;11235;-62
2022/01/03 15:40:49;;;;;;;;;;;;;;;22.09;53.96;100140.50;5006559;28;5280;-79
2022/01/03 15:43:14;;;;;;;;;;;;;;;22.18;53.50;100153.00;5008900;28;4229;-70
2022/01/03 15:45:39;;;;;;;;;;;;;;;22.12;53.82;100155.72;4981157;28;10114;-74
2022/01/03 15:48:05;;;;;;;;;;;;;;;21.82;54.34;100152.69;5021654;28;4211;-71
2022/01/03 15:50:30;;;;;;;;;;;;;;;21.66;55.10;100142.16;4931071;28;72640;-74
2022/01/03 15:52:55;;;;;;;;;;;;;;;21.91;54.12;100154.41;5016675;28;4312;-60
2022/01/03 15:55:20;;;;;;;;;;;;;;;22.33;53.13;100145.50;5007010;28;4388;-62
2022/01/03 15:57:46;;;;;;;;;;;;;;;22.48;52.34;100147.34;4981454;28;11121;-62
2022/01/03 16:00:11;;;;;;;;;;;;;;;22.09;53.21;100131.88;5011451;28;5531;-59
2022/01/03 16:02:36;;;;;;;;;;;;;;;22.03;53.53;100140.34;5006353;28;5367;-58
2022/01/03 16:05:01;;;;;;;;;;;;;;;21.97;53.88;100143.06;5006827;28;5243;-62
2022/01/03 16:08:45;;;;;;;5.70;2.47;;;;;;;21.81;54.23;100134.69;5022065;28;20349;-74
2022/01/03 16:11:10;;;;;;;16.05;2.55;;;;;;;21.85;54.51;100116.75;4989826;28;56605;-74
2022/01/03 16:13:35;;;;;;;4.50;1.80;;;;;;;21.94;53.85;100136.50;5044436;28;20036;-73
2022/01/03 16:16:01;;;;;;;8.52;2.45;;;;;;;21.88;54.31;100121.19;5053638;28;20220;-62
2022/01/03 16:18:26;;;;;;;6.57;2.03;;;;;;;21.89;54.24;100119.75;5054936;28;20516;-61
2022/01/03 16:20:51;;;;;;;5.80;1.90;;;;;;;21.82;54.37;100118.84;5061083;28;20041;-77
2022/01/03 16:23:17;;;;;;;7.40;2.08;;;;;;;21.81;54.25;100116.66;5068829;28;20231;-73
2022/01/03 16:25:42;;;;;;;4.68;1.70;;;;;;;21.77;54.59;100122.31;5069878;28;20044;-71
2022/01/03 16:28:07;;;;;;;5.57;1.98;;;;;;;21.81;54.40;100122.44;5070887;28;20505;-71
2022/01/03 16:30:33;;;;;;;4.30;1.95;;;;;;;21.78;54.48;100115.13;5069388;28;20052;-72
2022/01/03 16:32:58;;;;;;;4.80;1.58;;;;;;;21.74;54.80;100115.75;5065487;28;20065;-69
2022/01/03 16:35:24;;;;;;;4.78;1.80;;;;;;;21.72;54.71;100107.03;5065356;28;20052;-64
2022/01/03 16:37:49;;;;;;;4.45;1.85;;;;;;;21.74;54.70;100104.97;5067259;28;20619;-72
2022/01/03 16:40:17;;;;;;;4.15;1.77;;;;;;;21.81;54.66;100105.88;5066720;28;20054;-68
2022/01/03 16:42:42;;;;;;;4.57;1.83;;;;;;;21.89;54.71;100093.81;5065419;28;20032;-65
2022/01/03 16:45:09;;;;;;;2.95;1.70;;;;;;;21.93;54.23;100093.94;5070108;28;20074;-64
2022/01/03 16:47:34;;;;;;;6.90;2.20;;;;;;;21.88;54.33;100092.38;5067929;28;20059;-66
2022/01/03 16:50:01;;;;;;;16.02;4.85;;;;;;;21.87;54.17;100085.13;5066077;28;20036;-65
2022/01/03 16:52:27;;;;;;;26.33;8.35;;;;;;;22.11;53.67;100100.22;5066521;28;20357;-65
2022/01/03 16:54:52;;;;;;;59.88;18.58;;;;;;;22.24;53.14;100097.66;5070616;28;20852;-65
2022/01/03 16:57:18;;;;;;;51.80;19.55;;;;;;;22.07;53.81;100090.72;5072160;28;20036;-66
2022/01/03 16:59:43;;;;;;;99.85;34.17;;;;;;;22.28;53.29;100097.78;5070212;28;20058;-69
2022/01/03 17:02:08;;;;;;;84.18;29.35;;;;;;;22.28;52.83;100084.09;5069786;28;20032;-64
2022/01/03 17:04:34;;;;;;;81.65;28.75;;;;;;;22.32;53.06;100089.25;5068912;28;20062;-64
2022/01/03 17:06:59;;;;;;;96.55;32.35;;;;;;;22.28;52.97;100086.25;5069181;28;20582;-61
2022/01/03 17:09:24;;;;;;;;;;;;;;;22.32;53.15;100087.09;5070133;28;20040;-70
2022/01/03 17:11:49;;;;;;;;;;;;;;;21.86;54.30;100078.63;5074195;28;19935;-71
2022/01/03 17:14:18;;;;;;;;;;;;;;;21.72;54.96;100069.59;5070725;28;19972;-56
2022/01/03 17:16:44;;;;;;;;;;;;;;;21.71;54.82;100068.09;5067985;28;19924;-58
2022/01/03 17:19:09;;;;;;;;;;;;;;;21.79;54.57;100065.47;5059837;28;19932;-57
2022/01/03 17:21:34;;;;;;;;;;;;;;;21.77;54.83;100067.56;5055629;28;19916;-59
2022/01/03 17:23:59;;;;;;;;;;;;;;;21.80;54.59;100077.72;5054073;28;19921;-58
2022/01/03 17:26:25;;;;;;;;;;;;;;;21.78;54.81;100077.66;5055724;28;19924;-58
2022/01/03 17:28:50;;;;;;;;;;;;;;;21.72;54.87;100067.44;5056799;28;19977;-58
2022/01/03 17:31:15;;;;;;;;;;;;;;;21.58;53.08;100080.69;5049698;28;19928;-59
2022/01/03 17:35:57;;;;;;;;;;;;;;;21.50;53.46;100061.03;5086224;27;4497;-63
2022/01/03 17:38:22;;;;;;;;;;;;;;;21.71;53.30;100063.06;5076483;28;4239;-70
2022/01/03 17:40:47;;;;;;;;;;;;;;;21.81;53.81;100059.03;5067895;28;5323;-62
2022/01/03 17:43:13;;;;;;;;;;;;;;;21.87;53.56;100073.59;5065896;28;6845;-64
2022/01/03 17:45:38;;;;;;;;;;;;;;;21.86;53.76;100069.25;5069644;28;4222;-64
2022/01/03 17:48:03;;;;;;;;;;;;;;;21.86;53.64;100069.25;5069608;28;4195;-62
2022/01/03 17:50:28;;;;;;;;;;;;;;;22.32;52.67;100066.91;5069277;28;5400;-64
2022/01/03 17:52:53;;;;;;;;;;;;;;;22.38;52.09;100069.22;5069425;28;4167;-62
2022/01/03 17:55:19;;;;;;;;;;;;;;;22.37;52.36;100059.06;5070467;28;5486;-63
2022/01/03 17:57:44;;;;;;;;;;;;;;;22.37;52.14;100059.06;5070403;28;4235;-63
2022/01/03 18:00:11;;;;;;;;;;;;;;;22.38;52.03;100049.75;5070753;28;4237;-71
2022/01/03 18:02:36;;;;;;;;;;;;;;;22.39;52.29;100056.25;5068686;28;4204;-66
2022/01/03 18:05:01;;;;;;;;;;;;;;;22.39;52.34;100053.38;5071798;28;4236;-69
2022/01/03 18:09:38;;;;;;;;;;;;;;;22.41;52.31;100052.69;5041610;28;4130;-67
2022/01/03 18:12:03;;;;;;;;;;;;;;;22.41;52.01;100047.66;5031061;28;5494;-65
2022/01/03 18:14:28;;;;;;;;;;;;;;;22.41;52.15;100053.41;5029424;28;4236;-64
2022/01/03 18:16:54;;;;;;;;;;;;;;;22.42;52.15;100054.16;5022458;28;4335;-62
2022/01/03 18:19:19;;;;;;;;;;;;;;;22.42;52.17;100043.34;5012177;28;9651;-68
2022/01/03 18:21:44;;;;;;;;;;;;;;;22.43;52.35;100044.81;5051381;28;4216;-63
2022/01/03 18:24:09;;;;;;;;;;;;;;;22.41;52.44;100039.00;5049595;28;4148;-63
2022/01/03 18:26:35;;;;;;;;;;;;;;;22.42;52.29;100028.19;5050213;28;5659;-61
2022/01/03 18:29:00;;;;;;;;;;;;;;;22.44;52.14;100028.97;5049667;28;4244;-65
2022/01/03 18:31:25;;;;;;;;;;;;;;;22.42;52.33;100020.25;5021238;28;9553;-62
2022/01/03 18:35:23;;;;;;;;;;;;;;;22.34;52.75;100009.25;5037981;27;4160;-64
2022/01/03 18:37:49;;;;;;;;;;;;;;;22.40;52.32;100017.31;5044148;28;4174;-65
2022/01/03 18:40:16;;;;;;;;;;;;;;;22.41;52.51;100007.25;5042722;28;4379;-63
2022/01/03 18:42:43;;;;;;;;;;;;;;;22.37;52.44;100001.38;5008258;28;9835;-62
2022/01/03 18:45:09;;;;;;;;;;;;;;;22.36;52.59;100008.59;5030131;28;4256;-62
2022/01/03 18:47:37;;;;;;;;;;;;;;;22.27;52.38;100010.53;5027717;28;4689;-62
2022/01/03 18:50:03;;;;;;;;;;;;;;;22.13;50.57;100004.38;5032313;28;5307;-68
2022/01/03 18:55:04;;;;;;;;;;;;;;;21.01;55.45;100014.22;5042518;27;4242;-80
2022/01/03 18:57:31;;;;;;;;;;;;;;;20.68;56.75;100013.25;5032200;28;4207;-75
2022/01/03 18:59:57;;;;;;;;;;;;;;;20.55;57.37;100017.09;5036313;28;4172;-75
2022/01/03 19:02:23;;;;;;;;;;;;;;;20.46;57.49;100010.34;5031034;28;5286;-75
2022/01/03 19:04:50;;;;;;;;;;;;;;;20.44;57.96;100007.41;5030119;28;5163;-73
2022/01/03 19:07:17;;;;;;;;;;;;;;;20.46;57.70;99998.84;5034361;28;4232;-68
2022/01/03 19:09:43;;;;;;;;;;;;;;;20.49;57.66;99994.63;5031584;28;4110;-66
2022/01/03 19:12:10;;;;;;;;;;;;;;;20.47;57.61;99985.94;5029151;28;4170;-67
2022/01/03 19:14:36;;;;;;;;;;;;;;;20.42;57.94;99995.09;5033524;28;4319;-69
2022/01/03 19:17:03;;;;;;;;;;;;;;;20.40;57.90;99990.00;5029364;28;4210;-70
2022/01/03 19:20:40;;;;;;;;;;;;;;;20.57;58.05;99984.81;5030069;27;4106;-68
2022/01/03 19:23:06;;;;;;;;;;;;;;;20.49;58.17;99986.00;5027589;28;5273;-67
2022/01/03 19:25:33;;;;;;;;;;;;;;;20.49;58.25;99985.25;5031883;28;4170;-67
2022/01/03 19:27:59;;;;;;;;;;;;;;;20.43;58.53;99977.19;5032335;28;4288;-71
2022/01/03 19:30:26;;;;;;;;;;;;;;;20.39;58.62;99970.56;5030964;28;4364;-69
2022/01/03 19:33:23;;;;;;;;;;;;;;;20.38;58.63;99963.34;5031946;28;4037;-69
2022/01/03 19:38:34;;;;;;;;;;;;;;;19.83;60.50;99968.00;5032509;28;5259;-68
2022/01/03 19:41:00;;;;;;;;;;;;;;;19.80;60.74;99969.34;5031414;28;4210;-69
2022/01/03 19:43:27;;;;;;;;;;;;;;;19.80;60.86;99977.97;5028957;28;5316;-68
2022/01/03 19:45:54;;;;;;;;;;;;;;;19.77;60.99;99970.66;5031894;28;4288;-70
2022/01/03 19:48:21;;;;;;;;;;;;;;;19.75;61.23;99970.59;5032843;28;5350;-69
2022/01/03 19:50:49;;;;;;;;;;;;;;;19.74;61.11;99972.72;5030021;28;4164;-68
2022/01/03 19:53:15;;;;;;;;;;;;;;;19.77;60.85;99973.53;5031640;28;4241;-68
2022/01/03 19:55:42;;;;;;;;;;;;;;;19.77;61.03;99970.66;5029168;28;4168;-69
2022/01/03 19:58:08;;;;;;;;;;;;;;;19.83;60.88;99976.63;5031897;28;5356;-71
2022/01/03 20:00:37;;;;;;;;;;;;;;;19.89;60.71;99973.97;5029897;28;4156;-66
2022/01/03 20:03:04;;;;;;;;;;;;;;;19.83;60.96;99970.88;5031860;28;4221;-68
2022/01/03 20:05:31;;;;;;;;;;;;;;;19.90;60.75;99971.81;5029898;28;4234;-68
2022/01/03 20:07:59;;;;;;;;;;;;;;;19.86;60.82;99969.56;5032685;28;4296;-68
2022/01/03 20:10:27;;;;;;;;;;;;;;;19.94;60.65;99969.09;5030015;28;4252;-68
2022/01/03 20:12:54;;;;;;;;;;;;;;;19.92;60.79;99977.63;5031263;28;5725;-68
2022/01/03 20:15:20;;;;;;;;;;;;;;;19.86;61.00;99966.69;5028660;28;4177;-68
2022/01/03 20:17:51;;;;;;;;;;;;;;;20.03;60.43;99973.72;5031657;28;4536;-68
2022/01/03 20:20:18;;;;;;;;;;;;;;;20.20;60.11;99969.22;5047082;28;4206;-69
2022/01/03 20:22:44;;;;;;;;;;;;;;;20.21;59.59;99964.97;4942109;28;13035;-73
2022/01/03 20:25:12;;;;;;;;;;;;;;;20.16;59.89;99966.22;5041473;28;4359;-75
2022/01/03 20:27:39;;;;;;;;;;;;;;;20.00;60.55;99961.41;5033750;28;4266;-73
2022/01/03 20:30:05;;;;;;;;;;;;;;;20.28;60.06;99960.88;4959217;28;11323;-67
2022/01/03 20:32:33;;;;;;;;;;;;;;;20.44;59.51;99958.53;5008853;28;4095;-67
2022/01/03 20:35:00;;;;;;;;;;;;;;;20.48;59.38;99958.66;5015384;28;4261;-66
2022/01/03 20:37:26;;;;;;;;;;;;;;;20.45;59.62;99962.84;5016826;28;5353;-69
2022/01/03 20:39:53;;;;;;;;;;;;;;;20.47;59.23;99960.03;5015832;28;4131;-69
2022/01/03 20:42:20;;;;;;;;;;;;;;;20.51;59.18;99960.19;5015658;28;4048;-69
2022/01/03 20:44:46;;;;;;;;;;;;;;;20.51;59.04;99953.69;5012704;28;4153;-70
2022/01/03 20:47:13;;;;;;;;;;;;;;;20.51;59.13;99942.91;5016389;28;4096;-71
2022/01/03 20:49:40;;;;;;;;;;;;;;;20.50;59.44;99960.84;5016381;28;5065;-71
2022/01/03 20:52:06;;;;;;;;;;;;;;;20.48;59.15;99950.03;5012796;28;4575;-70
2022/01/03 20:54:33;;;;;;;;;;;;;;;20.48;59.29;99958.66;5030578;28;5054;-67
2022/01/03 20:56:59;;;;;;;;;;;;;;;20.49;59.37;99951.47;5034925;28;4303;-67
2022/01/03 20:59:26;;;;;;;;;;;;;;;20.50;59.22;99946.47;5037962;28;4244;-67
2022/01/03 21:01:54;;;;;;;;;;;;;;;20.49;59.43;99951.47;5035009;28;4706;-74
2022/01/03 21:04:20;;;;;;;;;;;;;;;20.58;59.22;99952.50;5030860;28;4257;-70
2022/01/03 21:06:47;;;;;;;;;;;;;;;20.61;58.91;99950.41;5036748;28;4250;-69
2022/01/03 21:09:13;;;;;;;;;;;;;;;20.46;58.93;99947.09;5033271;28;4070;-63
2022/01/03 21:11:40;;;;;;;;;;;;;;;20.44;59.06;99944.13;5030599;28;5339;-62
2022/01/03 21:14:06;;;;;;;;;;;;;;;20.41;59.31;99944.72;5029540;28;5320;-63
2022/01/03 21:16:33;;;;;;;;;;;;;;;20.36;59.23;99943.88;5028070;28;4130;-63
2022/01/03 21:19:00;;;;;;;;;;;;;;;20.30;59.21;99944.44;5025269;28;4252;-63
2022/01/03 21:21:26;;;;;;;;;;;;;;;20.30;59.33;99940.81;5032903;28;5269;-63
2022/01/03 21:23:53;;;;;;;;;;;;;;;20.32;59.41;99943.75;5034945;28;6464;-63
2022/01/03 21:26:19;;;;;;;;;;;;;;;20.29;59.62;99945.09;5033981;28;4407;-63
2022/01/03 21:28:45;;;;;;;;;;;;;;;20.30;59.44;99935.81;5035951;28;5540;-64
2022/01/03 21:31:12;;;;;;;;;;;;;;;20.27;59.57;99939.28;5035643;28;4030;-63
2022/01/03 21:33:38;;;;;;;;;;;;;;;20.26;59.45;99932.78;5032099;28;4225;-63
2022/01/03 21:36:05;;;;;;;;;;;;;;;20.25;59.38;99939.22;5032573;28;4185;-63
2022/01/03 21:38:32;;;;;;;;;;;;;;;20.23;59.22;99937.00;5034517;28;4358;-63
2022/01/03 21:40:58;;;;;;;;;;;;;;;20.24;59.23;99938.47;5035607;28;4260;-63
2022/01/03 21:43:25;;;;;;;;;;;;;;;20.23;59.27;99930.53;5032948;28;4206;-63
2022/01/03 21:45:51;;;;;;;;;;;;;;;20.20;59.25;99926.88;5032165;28;5845;-63
2022/01/03 21:48:18;;;;;;;;;;;;;;;20.25;59.08;99936.34;5032018;28;4586;-63
2022/01/03 21:50:44;;;;;;;;;;;;;;;20.24;59.01;99932.00;5032595;28;5792;-62
2022/01/03 21:53:11;;;;;;;;;;;;;;;20.22;59.16;99931.94;5034359;28;4164;-63
2022/01/03 21:55:37;;;;;;;;;;;;;;;20.20;59.07;99921.13;5033889;28;4501;-63
2022/01/03 21:58:03;;;;;;;;;;;;;;;20.17;59.63;99915.97;5034875;28;4114;-63
2022/01/03 22:00:30;;;;;;;;;;;;;;;20.13;59.32;99922.31;5032535;28;4352;-62
2022/01/03 22:02:56;;;;;;;;;;;;;;;20.15;59.15;99913.75;5034597;28;4896;-62
2022/01/03 22:05:23;;;;;;;;;;;;;;;20.14;59.25;99917.31;5033468;28;4203;-63
2022/01/03 22:07:52;;;;;;;;;;;;;;;20.13;59.34;99910.06;5031172;28;5258;-63
2022/01/03 22:10:19;;;;;;;;;;;;;;;20.13;59.01;99910.06;5034320;28;4330;-63
2022/01/03 22:12:45;;;;;;;;;;;;;;;20.20;59.18;99920.34;5031610;28;4355;-62
2022/01/03 22:15:12;;;;;;;;;;;;;;;20.17;59.01;99904.47;5029938;28;6298;-63
2022/01/03 22:17:38;;;;;;;;;;;;;;;20.17;59.12;99904.47;5031820;28;4164;-63
2022/01/03 22:20:04;;;;;;;;;;;;;;;20.19;58.62;99902.38;5034760;28;4094;-62
2022/01/03 22:22:31;;;;;;;;;;;;;;;19.70;60.17;99908.66;5033761;28;5537;-62
2022/01/03 22:24:57;;;;;;;;;;;;;;;19.65;60.58;99899.91;5032282;28;5313;-62
2022/01/03 22:27:23;;;;;;;;;;;;;;;19.64;60.56;99892.66;5024734;28;4197;-62
2022/01/03 22:29:50;;;;;;;;;;;;;;;19.65;60.62;99894.16;5027557;28;4519;-62
2022/01/03 22:32:16;;;;;;;;;;;;;;;19.66;60.59;99884.13;5030001;28;4245;-63
2022/01/03 22:34:43;;;;;;;;;;;;;;;19.69;60.56;99884.22;5026052;28;4260;-62
2022/01/03 22:37:09;;;;;;;;;;;;;;;19.69;60.59;99881.34;5024486;28;4234;-62
2022/01/03 22:39:35;;;;;;;;;;;;;;;19.63;60.74;99882.59;5028850;28;4241;-62
2022/01/03 22:42:02;;;;;;;;;;;;;;;19.62;60.88;99878.25;5034201;28;5289;-62
2022/01/03 22:44:28;;;;;;;;;;;;;;;19.64;60.82;99881.19;5027486;28;4230;-62
2022/01/03 22:46:55;;;;;;;;;;;;;;;19.61;60.98;99876.78;5034425;28;4273;-62
2022/01/03 22:49:21;;;;;;;;;;;;;;;19.65;60.74;99873.28;5033291;28;4429;-62
2022/01/03 22:51:47;;;;;;;;;;;;;;;19.65;60.75;99870.44;5032302;28;4138;-62
2022/01/03 22:54:14;;;;;;;;;;;;;;;19.63;60.75;99868.25;5026621;28;4263;-62
2022/01/03 22:56:40;;;;;;;;;;;;;;;19.61;60.82;99865.28;5027238;28;4001;-63
2022/01/03 22:59:06;;;;;;;;;;;;;;;19.61;60.87;99861.69;5027854;28;4321;-62
2022/01/03 23:01:33;;;;;;;;;;;;;;;19.64;60.93;99852.47;5028103;28;4256;-62
2022/01/03 23:03:59;;;;;;;;;;;;;;;19.62;60.95;99874.63;5026068;28;4376;-62
2022/01/03 23:06:26;;;;;;;;;;;;;;;19.61;61.07;99862.44;5025465;28;4274;-62
2022/01/03 23:08:52;;;;;;;;;;;;;;;19.57;61.29;99865.16;5024415;28;5124;-62
2022/01/03 23:11:19;;;;;;;;;;;;;;;19.61;61.08;99865.28;5026810;28;4256;-62
2022/01/03 23:13:45;;;;;;;;;;;;;;;19.63;61.18;99859.63;5028635;28;4243;-62
2022/01/03 23:16:11;;;;;;;;;;;;;;;19.66;61.04;99854.69;5027117;28;4245;-63
2022/01/03 23:18:38;;;;;;;;;;;;;;;19.62;61.10;99852.41;5032810;28;4376;-63
2022/01/03 23:21:05;;;;;;;;;;;;;;;19.59;61.25;99848.00;5030452;28;4163;-62
2022/01/03 23:23:32;;;;;;;;;;;;;;;19.58;61.34;99852.25;5032816;28;5338;-62
2022/01/03 23:25:58;;;;;;;;;;;;;;;19.58;61.13;99852.25;5034108;28;5157;-62
2022/01/03 23:28:25;;;;;;;;;;;;;;;19.60;61.16;99852.31;5032958;28;4112;-63
2022/01/03 23:30:51;;;;;;;;;;;;;;;19.63;60.94;99851.00;5035042;28;4081;-63
2022/01/03 23:33:17;;;;;;;;;;;;;;;19.63;61.04;99841.63;5016878;28;4331;-64
2022/01/03 23:35:44;;;;;;;;;;;;;;;19.60;61.06;99832.22;5031667;28;4292;-63
2022/01/03 23:38:11;;;;;;;;;;;;;;;19.62;61.34;99825.81;5033834;28;4285;-63
2022/01/03 23:40:37;;;;;;;;;;;;;;;19.57;61.43;99830.69;5034263;28;4895;-63
2022/01/03 23:43:03;;;;;;;;;;;;;;;19.57;61.53;99830.69;5035981;28;4173;-63
2022/01/03 23:45:30;;;;;;;;;;;;;;;19.57;61.53;99807.72;5035149;28;5329;-63
2022/01/03 23:47:56;;;;;;;;;;;;;;;19.60;61.31;99817.88;5028870;28;4227;-63
2022/01/03 23:50:23;;;;;;;;;;;;;;;19.61;61.11;99819.34;5035451;28;4187;-63
2022/01/03 23:52:49;;;;;;;;;;;;;;;19.60;61.22;99812.13;5031891;28;4281;-63
2022/01/03 23:55:15;;;;;;;;;;;;;;;19.62;61.21;99797.84;5034648;28;4135;-63
2022/01/03 23:57:42;;;;;;;;;;;;;;;19.63;61.20;99804.31;5033795;28;4175;-63
